Time;durP1;ratioP1;P1;durP2;ratioP2;P2;SDS_P1;SDS_P2;PMS_P1;PMS_P2;Temp;Humidity;BMP_temperature;BMP_pressure;BME280_temperature;BME280_humidity;BME280_pressure;Samples;Min_cycle;Max_cycle;Signal;HPM_P1;HPM_P2
2021/06/24 00:02:20;;;;;;;22.20;18.07;;;14.40;99.90;;;;;;4994246;28;20648;-75
2021/06/24 00:04:46;;;;;;;21.07;18.87;;;14.30;99.90;;;;;;4993559;28;20573;-76
2021/06/24 00:07:11;;;;;;;25.97;18.40;;;14.30;99.90;;;;;;4993897;28;20804;-75
2021/06/24 00:09:37;;;;;;;23.57;20.10;;;14.30;99.90;;;;;;4993798;28;20172;-75
2021/06/24 00:12:03;;;;;;;30.50;17.80;;;14.40;99.90;;;;;;4992694;28;20171;-75
2021/06/24 00:14:29;;;;;;;25.77;18.53;;;14.40;99.90;;;;;;4993409;28;20215;-75
2021/06/24 00:16:55;;;;;;;23.00;20.10;;;14.50;99.90;;;;;;4992653;28;20931;-75
2021/06/24 00:19:21;;;;;;;24.27;18.30;;;14.50;99.90;;;;;;4993661;28;20183;-76
2021/06/24 00:21:46;;;;;;;20.90;18.43;;;14.40;99.90;;;;;;4993632;28;20453;-76
2021/06/24 00:24:12;;;;;;;20.20;18.10;;;14.40;99.90;;;;;;4993476;28;20824;-76
2021/06/24 00:26:38;;;;;;;20.30;17.20;;;14.30;99.90;;;;;;4993865;28;20657;-76
2021/06/24 00:29:03;;;;;;;27.67;19.47;;;14.30;99.90;;;;;;4993940;28;20245;-76
2021/06/24 00:31:29;;;;;;;29.80;20.50;;;14.20;99.90;;;;;;4992390;28;20270;-76
2021/06/24 00:33:54;;;;;;;22.57;20.10;;;14.20;99.90;;;;;;4993383;28;20203;-76
2021/06/24 00:36:20;;;;;;;22.20;19.80;;;14.10;99.90;;;;;;4992480;28;20195;-75
2021/06/24 00:38:45;;;;;;;27.20;19.37;;;14.00;99.90;;;;;;4993972;28;20184;-76
2021/06/24 00:41:12;;;;;;;19.87;17.77;;;14.00;99.90;;;;;;4993936;28;20545;-76
2021/06/24 00:43:37;;;;;;;24.93;19.07;;;14.00;99.90;;;;;;4993010;28;20171;-76
2021/06/24 00:46:03;;;;;;;21.97;19.67;;;14.00;99.90;;;;;;4993508;28;20415;-76
2021/06/24 00:48:28;;;;;;;26.93;21.10;;;14.00;99.90;;;;;;4993384;28;20652;-75
2021/06/24 00:50:54;;;;;;;24.63;19.40;;;13.90;99.90;;;;;;4993719;28;20186;-76
2021/06/24 00:53:19;;;;;;;29.37;21.87;;;13.80;99.90;;;;;;4993329;28;20179;-76
2021/06/24 00:55:46;;;;;;;24.90;21.80;;;13.80;99.90;;;;;;4993386;28;20197;-75
2021/06/24 00:58:16;;;;;;;29.60;20.90;;;13.70;99.90;;;;;;4993704;28;20226;-75
2021/06/24 01:00:44;;;;;;;23.30;20.83;;;13.60;99.90;;;;;;4993596;28;20438;-76
2021/06/24 01:03:11;;;;;;;27.50;20.30;;;13.60;99.90;;;;;;4993065;28;20415;-75
2021/06/24 01:05:39;;;;;;;22.33;18.90;;;13.60;99.90;;;;;;4993329;28;20446;-75
2021/06/24 01:08:06;;;;;;;23.23;20.20;;;13.70;99.90;;;;;;4993669;28;20462;-76
2021/06/24 01:10:31;;;;;;;21.73;17.73;;;13.70;99.90;;;;;;4996931;28;20446;-75
2021/06/24 01:12:57;;;;;;;19.47;17.43;;;13.60;99.90;;;;;;4996518;28;20442;-76
2021/06/24 01:15:23;;;;;;;25.93;17.70;;;13.60;99.90;;;;;;4996415;28;20294;-76
2021/06/24 01:17:49;;;;;;;20.40;18.30;;;13.50;99.90;;;;;;4996762;28;20217;-76
2021/06/24 01:20:17;;;;;;;25.73;19.30;;;13.60;99.90;;;;;;4995536;28;20458;-76
2021/06/24 01:22:43;;;;;;;24.37;20.53;;;13.60;99.90;;;;;;4996672;28;20586;-75
2021/06/24 01:25:09;;;;;;;22.27;19.90;;;13.50;99.90;;;;;;4996662;28;20521;-75
2021/06/24 01:27:35;;;;;;;28.07;22.00;;;13.50;99.90;;;;;;4996602;28;20466;-77
2021/06/24 01:30:00;;;;;;;23.37;20.93;;;13.40;99.90;;;;;;4996584;28;20829;-78
2021/06/24 01:32:30;;;;;;;28.53;19.67;;;13.40;99.90;;;;;;4996562;28;20698;-76
2021/06/24 01:34:55;;;;;;;21.53;17.53;;;13.40;99.90;;;;;;4996186;28;20250;-75
2021/06/24 01:37:21;;;;;;;23.20;18.70;;;13.50;99.90;;;;;;4996219;28;20422;-76
2021/06/24 01:39:47;;;;;;;23.43;20.73;;;13.50;99.90;;;;;;4996492;28;20198;-76
2021/06/24 01:42:14;;;;;;;21.30;17.90;;;13.50;99.90;;;;;;4996259;28;20430;-75
2021/06/24 01:44:40;;;;;;;22.20;17.83;;;13.60;99.90;;;;;;4996189;28;20496;-75
2021/06/24 01:47:09;;;;;;;25.40;19.47;;;13.60;99.90;;;;;;4996358;28;20466;-76
2021/06/24 01:49:35;;;;;;;21.53;19.13;;;13.60;99.90;;;;;;4994885;28;20498;-76
2021/06/24 01:52:00;;;;;;;22.50;18.73;;;13.50;99.90;;;;;;4996259;28;20895;-75
2021/06/24 01:54:26;;;;;;;20.93;18.40;;;13.50;99.90;;;;;;4994549;28;20676;-76
2021/06/24 01:56:52;;;;;;;23.10;19.07;;;13.50;99.90;;;;;;4994985;28;20183;-76
2021/06/24 01:59:17;;;;;;;19.47;17.20;;;13.60;99.90;;;;;;4996131;28;20666;-75
2021/06/24 02:01:43;;;;;;;23.13;19.23;;;13.60;99.90;;;;;;4995988;28;20179;-76
2021/06/24 02:04:09;;;;;;;26.37;20.30;;;13.60;99.90;;;;;;4994308;28;20235;-77
2021/06/24 02:06:35;;;;;;;19.93;16.27;;;13.60;99.90;;;;;;4994715;28;20571;-77
2021/06/24 02:09:00;;;;;;;19.80;17.80;;;13.60;99.90;;;;;;4995951;28;20389;-76
2021/06/24 02:11:26;;;;;;;21.77;18.10;;;13.50;99.90;;;;;;4995990;28;20411;-77
2021/06/24 02:13:52;;;;;;;20.87;18.67;;;13.50;99.90;;;;;;4995353;28;20208;-77
2021/06/24 02:16:18;;;;;;;24.60;18.57;;;13.50;99.90;;;;;;4995677;28;20203;-77
2021/06/24 02:18:43;;;;;;;23.17;19.47;;;13.50;99.90;;;;;;4995754;28;20183;-77
2021/06/24 02:21:09;;;;;;;20.87;18.67;;;13.60;99.90;;;;;;4994674;28;20271;-76
2021/06/24 02:23:35;;;;;;;28.83;22.37;;;13.60;99.90;;;;;;4995238;28;20172;-76
2021/06/24 02:26:00;;;;;;;23.80;19.27;;;13.60;99.90;;;;;;4994463;28;20179;-76
2021/06/24 02:28:26;;;;;;;29.73;21.10;;;13.70;99.90;;;;;;4995271;28;20211;-79
2021/06/24 02:30:52;;;;;;;19.93;17.87;;;13.70;99.90;;;;;;4995488;28;20171;-76
2021/06/24 02:33:19;;;;;;;19.33;17.23;;;13.70;99.90;;;;;;4995344;28;20180;-76
2021/06/24 02:35:48;;;;;;;23.67;21.10;;;13.70;99.90;;;;;;4995506;28;20199;-77
2021/06/24 02:38:14;;;;;;;21.93;19.33;;;13.70;99.90;;;;;;4995360;28;20415;-77
2021/06/24 02:40:39;;;;;;;26.37;20.50;;;13.70;99.90;;;;;;4995181;28;20411;-76
2021/06/24 02:43:06;;;;;;;26.67;20.43;;;13.60;99.90;;;;;;4995020;28;20786;-76
2021/06/24 02:45:31;;;;;;;25.10;20.97;;;13.60;99.90;;;;;;4995248;28;20282;-76
2021/06/24 02:47:57;;;;;;;23.40;18.83;;;13.50;99.90;;;;;;4993906;28;20545;-77
2021/06/24 02:50:24;;;;;;;26.10;20.40;;;13.60;99.90;;;;;;4995047;28;20234;-77
2021/06/24 02:52:49;;;;;;;23.10;20.67;;;13.60;99.90;;;;;;4994692;28;20184;-77
2021/06/24 02:55:15;;;;;;;24.33;20.90;;;13.60;99.90;;;;;;4995359;28;20434;-77
2021/06/24 02:57:41;;;;;;;24.83;19.33;;;13.60;99.90;;;;;;4993863;28;20908;-77
2021/06/24 03:00:09;;;;;;;22.40;18.83;;;13.50;99.90;;;;;;4995005;28;20188;-76
2021/06/24 03:02:36;;;;;;;28.03;19.17;;;13.50;99.90;;;;;;4994800;28;20822;-76
2021/06/24 03:05:02;;;;;;;24.17;19.57;;;13.50;99.90;;;;;;4994427;28;20947;-76
2021/06/24 03:07:28;;;;;;;22.70;19.07;;;13.40;99.90;;;;;;4994811;28;20478;-76
2021/06/24 03:09:54;;;;;;;26.10;20.27;;;13.40;99.90;;;;;;4994671;28;20410;-77
2021/06/24 03:12:19;;;;;;;21.77;19.67;;;13.50;99.90;;;;;;4994723;28;20266;-76
2021/06/24 03:14:45;;;;;;;20.53;18.23;;;13.50;99.90;;;;;;4994045;28;20215;-78
2021/06/24 03:17:10;;;;;;;25.87;20.03;;;13.60;99.90;;;;;;4994583;28;20180;-76
2021/06/24 03:19:36;;;;;;;28.03;21.17;;;13.50;99.90;;;;;;4995048;28;20242;-76
2021/06/24 03:22:02;;;;;;;26.90;22.20;;;13.50;99.90;;;;;;4994453;28;20179;-76
2021/06/24 03:24:27;;;;;;;22.27;19.70;;;13.50;99.90;;;;;;4994002;28;20207;-76
2021/06/24 03:26:53;;;;;;;27.00;20.00;;;13.60;99.90;;;;;;4994326;28;20318;-76
2021/06/24 03:29:19;;;;;;;26.30;21.00;;;13.60;99.90;;;;;;4994389;28;20178;-76
2021/06/24 03:31:45;;;;;;;25.83;21.70;;;13.70;99.90;;;;;;4994099;28;20182;-76
2021/06/24 03:34:11;;;;;;;34.17;21.40;;;13.70;99.90;;;;;;4993954;28;20207;-76
2021/06/24 03:36:36;;;;;;;28.53;21.47;;;13.70;99.90;;;;;;4994292;28;20397;-76
2021/06/24 03:39:03;;;;;;;30.30;22.07;;;13.70;99.90;;;;;;4994135;28;20191;-76
2021/06/24 03:41:29;;;;;;;24.03;21.53;;;13.60;99.90;;;;;;4994199;28;20241;-76
2021/06/24 03:43:57;;;;;;;26.87;20.70;;;13.70;99.90;;;;;;4993827;28;20837;-76
2021/06/24 03:46:23;;;;;;;25.83;21.23;;;13.70;99.90;;;;;;4994136;28;20175;-76
2021/06/24 03:48:50;;;;;;;26.30;21.10;;;13.70;99.90;;;;;;4994072;28;20423;-77
2021/06/24 03:51:15;;;;;;;25.10;21.33;;;13.90;99.90;;;;;;4994332;28;20840;-76
2021/06/24 03:53:41;;;;;;;28.07;21.87;;;13.90;99.90;;;;;;4993702;28;20509;-76
2021/06/24 03:56:09;;;;;;;34.10;21.40;;;13.90;99.90;;;;;;4994141;28;20584;-76
2021/06/24 03:58:34;;;;;;;27.60;22.57;;;14.00;99.90;;;;;;4992875;28;20277;-77
2021/06/24 04:01:01;;;;;;;24.87;20.70;;;14.00;99.90;;;;;;4993960;28;20509;-76
2021/06/24 04:03:27;;;;;;;24.87;21.13;;;13.90;99.90;;;;;;4992320;28;20192;-76
2021/06/24 04:05:52;;;;;;;26.47;20.73;;;13.90;99.90;;;;;;4993885;28;20465;-76
2021/06/24 04:08:18;;;;;;;26.27;21.73;;;13.90;99.90;;;;;;4993881;28;20568;-77
2021/06/24 04:10:44;;;;;;;26.13;22.17;;;14.00;99.90;;;;;;4993892;28;20214;-76
2021/06/24 04:13:09;;;;;;;26.57;20.87;;;14.00;99.90;;;;;;4993270;28;20237;-77
2021/06/24 04:15:36;;;;;;;25.90;21.97;;;13.90;99.90;;;;;;4993702;28;20203;-78
2021/06/24 04:18:03;;;;;;;33.73;22.33;;;13.90;99.90;;;;;;4993817;28;20179;-76
2021/06/24 04:20:30;;;;;;;23.87;20.77;;;14.00;99.90;;;;;;4992689;28;20444;-76
2021/06/24 04:22:56;;;;;;;29.33;21.60;;;13.90;99.90;;;;;;4993448;28;20426;-76
2021/06/24 04:25:22;;;;;;;26.30;21.53;;;14.00;99.90;;;;;;4993602;28;20441;-77
2021/06/24 04:27:48;;;;;;;30.70;21.47;;;14.00;99.90;;;;;;4993579;28;20478;-77
2021/06/24 04:30:15;;;;;;;32.97;22.37;;;14.10;99.90;;;;;;4993758;28;20770;-76
2021/06/24 04:32:42;;;;;;;30.83;22.87;;;14.20;99.90;;;;;;4993570;28;20411;-76
2021/06/24 04:35:08;;;;;;;29.20;21.57;;;14.20;99.90;;;;;;4993378;28;20450;-77
2021/06/24 04:37:34;;;;;;;26.87;21.97;;;14.20;99.90;;;;;;4993706;28;20422;-76
2021/06/24 04:40:00;;;;;;;28.57;22.57;;;14.20;99.90;;;;;;4993668;28;20787;-76
2021/06/24 04:42:26;;;;;;;26.80;20.53;;;14.20;99.90;;;;;;4993653;28;20931;-76
2021/06/24 04:44:51;;;;;;;70.57;22.63;;;14.20;99.90;;;;;;4996563;28;21008;-76
2021/06/24 04:47:17;;;;;;;23.73;20.40;;;14.20;99.90;;;;;;4997508;28;20214;-77
2021/06/24 04:49:43;;;;;;;29.30;21.87;;;14.20;99.90;;;;;;4997218;28;20233;-76
2021/06/24 04:52:09;;;;;;;32.60;23.10;;;14.30;99.90;;;;;;4997494;28;20180;-76
2021/06/24 04:54:34;;;;;;;31.60;22.80;;;14.30;99.90;;;;;;4996959;28;20521;-76
2021/06/24 04:57:00;;;;;;;30.70;23.40;;;14.30;99.90;;;;;;4997442;28;20510;-78
2021/06/24 04:59:26;;;;;;;33.97;22.90;;;14.20;99.90;;;;;;4997526;28;20183;-76
2021/06/24 05:01:53;;;;;;;28.87;23.87;;;14.30;99.90;;;;;;4996554;28;20187;-77
2021/06/24 05:04:18;;;;;;;27.83;21.50;;;14.50;99.90;;;;;;4996883;28;20226;-76
2021/06/24 05:06:49;;;;;;;21.70;19.37;;;14.60;99.90;;;;;;4996958;28;21053;-77
2021/06/24 05:09:15;;;;;;;27.13;21.40;;;14.60;99.90;;;;;;4997142;28;20225;-76
2021/06/24 05:11:41;;;;;;;24.57;18.63;;;14.70;99.90;;;;;;4996930;28;20558;-77
2021/06/24 05:14:07;;;;;;;25.40;19.10;;;14.70;99.90;;;;;;4996451;28;20996;-76
2021/06/24 05:16:34;;;;;;;21.60;19.23;;;14.80;99.90;;;;;;4996661;28;20175;-77
2021/06/24 05:19:00;;;;;;;28.63;19.23;;;14.80;99.90;;;;;;4996766;28;20407;-76
2021/06/24 05:21:26;;;;;;;21.43;16.20;;;14.80;99.90;;;;;;4996737;28;20392;-76
2021/06/24 05:23:52;;;;;;;31.53;18.07;;;14.90;99.90;;;;;;4996161;28;20939;-78
2021/06/24 05:26:17;;;;;;;20.37;16.80;;;15.00;99.90;;;;;;4996824;28;20178;-76
2021/06/24 05:28:43;;;;;;;23.40;17.50;;;14.90;99.90;;;;;;4996746;28;20184;-76
2021/06/24 05:31:09;;;;;;;20.43;17.63;;;15.00;99.90;;;;;;4996415;28;20191;-76
2021/06/24 05:33:35;;;;;;;20.80;17.47;;;15.20;99.90;;;;;;4995906;28;20172;-78
2021/06/24 05:36:00;;;;;;;23.67;17.50;;;15.20;99.90;;;;;;4996525;28;20437;-78
2021/06/24 05:38:26;;;;;;;25.83;18.20;;;15.30;99.90;;;;;;4996674;28;20188;-78
2021/06/24 05:40:53;;;;;;;28.00;18.30;;;15.30;99.90;;;;;;4995244;28;20278;-78
2021/06/24 05:43:18;;;;;;;20.97;18.73;;;15.40;99.90;;;;;;4996254;28;20210;-80
2021/06/24 05:45:44;;;;;;;22.27;18.77;;;15.40;99.90;;;;;;4996313;28;20470;-79
2021/06/24 05:48:10;;;;;;;19.97;17.80;;;15.60;99.90;;;;;;4996269;28;20250;-81
2021/06/24 05:50:36;;;;;;;27.63;18.03;;;15.60;99.90;;;;;;4996452;28;20506;-80
2021/06/24 05:53:02;;;;;;;23.10;18.57;;;15.70;99.90;;;;;;4995717;28;20184;-80
2021/06/24 05:58:14;;;;;;;20.20;18.00;;;16.00;99.90;;;;;;4996533;28;20270;-78
2021/06/24 06:00:39;;;;;;;22.23;17.60;;;16.10;99.90;;;;;;4996237;28;20397;-80
2021/06/24 06:03:05;;;;;;;20.00;17.90;;;16.30;99.90;;;;;;4993537;28;20423;-78
2021/06/24 06:05:35;;;;;;;19.53;15.87;;;16.40;99.90;;;;;;4993920;28;20282;-80
2021/06/24 06:08:05;;;;;;;19.17;17.17;;;16.40;99.90;;;;;;4994135;28;20469;-80
2021/06/24 06:10:32;;;;;;;22.90;17.70;;;16.60;99.90;;;;;;4993419;28;20976;-77
2021/06/24 06:12:58;;;;;;;18.47;15.07;;;16.60;99.90;;;;;;4993697;28;20510;-80
2021/06/24 06:15:23;;;;;;;21.60;17.10;;;16.50;99.90;;;;;;4994270;28;20517;-79
2021/06/24 06:17:49;;;;;;;22.70;16.70;;;16.50;99.90;;;;;;4993695;28;20187;-80
2021/06/24 06:20:16;;;;;;;23.10;17.17;;;16.50;99.90;;;;;;4993990;28;20548;-79
2021/06/24 06:22:42;;;;;;;27.03;17.27;;;16.50;99.90;;;;;;4993741;28;20847;-80
2021/06/24 06:25:08;;;;;;;28.93;16.50;;;16.60;99.90;;;;;;4993323;28;20442;-81
2021/06/24 06:27:34;;;;;;;22.20;17.33;;;16.70;99.90;;;;;;4992590;28;20247;-81
2021/06/24 06:29:59;;;;;;;19.50;16.37;;;16.80;99.90;;;;;;4994299;28;20804;-79
2021/06/24 06:32:25;;;;;;;19.93;16.40;;;16.70;99.90;;;;;;4991990;28;20188;-79
2021/06/24 06:34:51;;;;;;;21.77;17.60;;;16.70;99.90;;;;;;4993977;28;20207;-78
2021/06/24 06:37:17;;;;;;;22.40;16.87;;;16.80;99.90;;;;;;4993643;28;20586;-81
2021/06/24 06:39:43;;;;;;;21.30;17.13;;;16.90;99.90;;;;;;4991538;28;20441;-78
2021/06/24 06:42:09;;;;;;;20.17;15.83;;;17.20;99.90;;;;;;4993339;28;20822;-79
2021/06/24 06:44:35;;;;;;;24.37;15.90;;;17.30;99.90;;;;;;4993140;28;20204;-77
2021/06/24 06:47:00;;;;;;;20.70;15.60;;;17.30;99.90;;;;;;4992474;28;20480;-81
2021/06/24 06:49:26;;;;;;;16.17;14.57;;;17.50;99.90;;;;;;4993912;28;20423;-81
2021/06/24 06:51:52;;;;;;;18.13;14.50;;;17.50;99.90;;;;;;4993467;28;20191;-78
2021/06/24 06:54:17;;;;;;;18.73;15.40;;;17.60;99.90;;;;;;4994626;28;20254;-79
2021/06/24 06:56:46;;;;;;;18.37;16.60;;;17.50;99.90;;;;;;4994925;28;20195;-77
2021/06/24 06:59:12;;;;;;;21.03;16.80;;;17.60;99.90;;;;;;4994764;28;20180;-77
2021/06/24 07:01:38;;;;;;;18.10;15.77;;;17.60;99.90;;;;;;4994793;28;20943;-77
2021/06/24 07:04:04;;;;;;;20.97;16.37;;;17.80;99.90;;;;;;4994410;28;20453;-77
2021/06/24 07:06:29;;;;;;;17.90;15.47;;;18.00;99.90;;;;;;4994241;28;20676;-77
2021/06/24 07:08:59;;;;;;;19.17;15.30;;;18.30;99.90;;;;;;4994831;28;20183;-76
2021/06/24 07:11:25;;;;;;;20.10;15.37;;;18.30;99.90;;;;;;4994800;28;20171;-77
2021/06/24 07:13:51;;;;;;;23.93;15.23;;;18.60;99.90;;;;;;4994095;28;20959;-77
2021/06/24 07:16:17;;;;;;;20.80;15.37;;;18.70;99.90;;;;;;4994612;28;20817;-77
2021/06/24 07:18:43;;;;;;;25.10;16.73;;;18.60;99.90;;;;;;4994443;28;20419;-76
2021/06/24 07:21:08;;;;;;;17.80;15.40;;;18.60;99.90;;;;;;4994519;28;20744;-77
2021/06/24 07:23:34;;;;;;;18.17;15.80;;;18.80;99.90;;;;;;4994116;28;20184;-77
2021/06/24 07:26:00;;;;;;;18.33;14.97;;;18.70;99.90;;;;;;4993165;28;20187;-76
2021/06/24 07:28:25;;;;;;;17.60;15.80;;;18.80;99.90;;;;;;4994277;28;20303;-78
2021/06/24 07:30:51;;;;;;;17.87;15.97;;;18.90;99.90;;;;;;4994185;28;20636;-77
2021/06/24 07:33:17;;;;;;;18.50;16.77;;;18.80;99.90;;;;;;4994377;28;20198;-76
2021/06/24 07:35:43;;;;;;;20.07;17.10;;;18.90;99.90;;;;;;4994381;28;20760;-77
2021/06/24 07:38:09;;;;;;;17.83;15.57;;;18.90;99.90;;;;;;4994397;28;20449;-77
2021/06/24 07:40:35;;;;;;;18.93;16.93;;;19.00;99.90;;;;;;4994373;28;20786;-77
2021/06/24 07:43:01;;;;;;;23.23;17.37;;;19.00;99.90;;;;;;4993926;28;20393;-77
2021/06/24 07:45:27;;;;;;;22.17;19.47;;;19.20;99.90;;;;;;4994083;28;20439;-78
2021/06/24 07:47:53;;;;;;;21.27;19.17;;;19.20;99.90;;;;;;4994092;28;20211;-77
2021/06/24 07:50:18;;;;;;;22.13;18.83;;;19.10;99.90;;;;;;4994036;28;20411;-78
2021/06/24 07:52:44;;;;;;;25.30;19.17;;;18.90;99.90;;;;;;4976303;28;20196;-77
2021/06/24 07:55:10;;;;;;;22.53;20.10;;;19.00;99.90;;;;;;4993842;28;20203;-78
2021/06/24 07:57:37;;;;;;;23.50;17.40;;;19.00;99.90;;;;;;4994185;28;20543;-77
2021/06/24 08:00:06;;;;;;;24.80;19.60;;;19.10;99.90;;;;;;4993979;28;20429;-77
2021/06/24 08:02:31;;;;;;;28.80;20.10;;;19.10;99.90;;;;;;4994241;28;20386;-77
2021/06/24 08:04:57;;;;;;;19.53;17.53;;;19.00;99.90;;;;;;4993656;28;20417;-78
2021/06/24 08:07:23;;;;;;;22.87;20.57;;;19.30;99.90;;;;;;4993930;28;20203;-78
2021/06/24 08:09:50;;;;;;;23.27;19.90;;;19.40;99.90;;;;;;4993897;28;20704;-77
2021/06/24 08:12:16;;;;;;;19.97;18.03;;;19.40;99.90;;;;;;4993882;28;20172;-77
2021/06/24 08:14:42;;;;;;;22.50;19.30;;;19.30;99.90;;;;;;4993328;28;20459;-77
2021/06/24 08:17:07;;;;;;;22.07;19.93;;;19.30;99.90;;;;;;4993641;28;20188;-77
2021/06/24 08:19:33;;;;;;;22.80;19.53;;;19.70;99.90;;;;;;4996865;28;20207;-78
2021/06/24 08:21:59;;;;;;;22.00;18.30;;;19.70;99.90;;;;;;4997946;28;20625;-77
2021/06/24 08:24:26;;;;;;;20.90;18.80;;;19.60;99.90;;;;;;4997458;28;20277;-77
2021/06/24 08:26:52;;;;;;;19.73;17.67;;;19.70;99.90;;;;;;4996349;28;20234;-78
2021/06/24 08:29:18;;;;;;;23.23;18.57;;;19.90;99.90;;;;;;4997551;28;20867;-77
2021/06/24 08:31:44;;;;;;;20.60;18.50;;;20.00;99.90;;;;;;4997536;28;20187;-77
2021/06/24 08:34:10;;;;;;;19.40;17.27;;;20.00;99.90;;;;;;4996099;28;20424;-77
2021/06/24 08:36:37;;;;;;;21.10;18.87;;;20.00;99.90;;;;;;4997625;28;20678;-77
2021/06/24 08:39:04;;;;;;;19.70;17.60;;;20.10;99.90;;;;;;4997514;28;20309;-77
2021/06/24 08:41:29;;;;;;;21.53;19.40;;;20.10;99.90;;;;;;4997558;28;20434;-76
2021/06/24 08:43:55;;;;;;;21.90;19.60;;;20.20;99.90;;;;;;4995804;28;20438;-76
2021/06/24 08:46:22;;;;;;;21.50;19.30;;;19.90;99.90;;;;;;4997559;28;20528;-76
2021/06/24 08:48:48;;;;;;;21.63;19.47;;;19.90;99.90;;;;;;4996550;28;20207;-77
2021/06/24 08:51:14;;;;;;;24.33;20.80;;;20.20;99.90;;;;;;4997271;28;20421;-77
2021/06/24 08:53:41;;;;;;;21.40;19.20;;;20.10;99.90;;;;;;4996901;28;20381;-77
2021/06/24 08:56:07;;;;;;;22.50;19.13;;;20.30;99.90;;;;;;4997214;28;20186;-77
2021/06/24 08:58:33;;;;;;;21.83;18.90;;;20.10;99.90;;;;;;4997180;28;20389;-77
2021/06/24 09:01:00;;;;;;;21.63;19.30;;;20.50;99.90;;;;;;4995985;28;20192;-77
2021/06/24 09:03:29;;;;;;;22.00;19.90;;;20.50;99.90;;;;;;4996538;28;20939;-77
2021/06/24 09:06:04;;;;;;;20.07;17.87;;;20.60;99.90;;;;;;4997030;28;20473;-76
2021/06/24 09:08:52;;;;;;;23.20;18.87;;;20.30;99.90;;;;;;4997111;28;20818;-77
2021/06/24 09:11:21;;;;;;;19.83;17.80;;;20.30;99.90;;;;;;4997148;28;20441;-76
2021/06/24 09:14:10;;;;;;;23.10;21.00;;;20.60;99.90;;;;;;4996445;28;20454;-76
2021/06/24 09:16:40;;;;;;;20.43;18.40;;;20.50;99.90;;;;;;4996882;28;20834;-76
2021/06/24 09:19:13;;;;;;;23.70;20.23;;;20.50;99.90;;;;;;4996836;28;20454;-76
2021/06/24 09:21:39;;;;;;;22.77;19.80;;;20.50;99.90;;;;;;4996425;28;20421;-76
2021/06/24 09:24:20;;;;;;;23.73;21.43;;;20.30;99.90;;;;;;4996324;28;20401;-76
2021/06/24 09:26:46;;;;;;;23.30;20.23;;;20.60;99.90;;;;;;4996525;28;20279;-77
2021/06/24 09:29:16;;;;;;;23.27;20.90;;;20.80;99.90;;;;;;4996131;28;20417;-76
2021/06/24 09:31:43;;;;;;;23.03;20.67;;;20.80;99.90;;;;;;4996447;28;20233;-78
2021/06/24 09:34:11;;;;;;;22.67;20.47;;;20.70;99.90;;;;;;4995042;28;20408;-76
2021/06/24 09:36:42;;;;;;;29.33;19.70;;;20.30;99.90;;;;;;4996480;28;20385;-76
2021/06/24 09:39:29;;;;;;;21.37;19.07;;;20.50;99.90;;;;;;4996575;28;20504;-76
2021/06/24 09:41:57;;;;;;;26.60;19.23;;;20.90;99.90;;;;;;4996161;28;20422;-77
2021/06/24 09:44:26;;;;;;;21.50;19.30;;;20.50;99.90;;;;;;4996274;28;20457;-77
2021/06/24 09:46:52;;;;;;;22.27;19.80;;;20.80;99.90;;;;;;4994933;28;20567;-76
2021/06/24 09:49:34;;;;;;;21.80;19.77;;;20.90;99.90;;;;;;4996338;28;20760;-77
2021/06/24 09:52:02;;;;;;;22.17;19.83;;;20.90;99.90;;;;;;4996054;28;20946;-76
2021/06/24 09:54:40;;;;;;;21.27;18.73;;;21.10;99.90;;;;;;4995804;28;20439;-77
2021/06/24 09:57:07;;;;;;;20.23;18.27;;;21.20;99.90;;;;;;4995585;28;20393;-76
2021/06/24 09:59:35;;;;;;;21.90;19.70;;;21.10;99.90;;;;;;4995331;28;20521;-76
2021/06/24 10:02:18;;;;;;;25.93;18.40;;;21.10;99.90;;;;;;4996249;28;20415;-76
2021/06/24 10:04:46;;;;;;;20.13;17.40;;;20.80;99.90;;;;;;4995971;28;20450;-76
2021/06/24 10:07:21;;;;;;;18.30;16.57;;;21.30;99.90;;;;;;4994926;28;20429;-77
2021/06/24 10:09:47;;;;;;;19.30;16.30;;;21.40;99.90;;;;;;4996016;28;20384;-78
2021/06/24 10:12:16;;;;;;;22.77;18.60;;;21.30;99.90;;;;;;4995834;28;20433;-76
2021/06/24 10:14:42;;;;;;;20.70;18.60;;;21.50;99.90;;;;;;4995112;28;20457;-78
2021/06/24 10:17:09;;;;;;;23.80;20.30;;;21.50;99.90;;;;;;4995770;28;20438;-77
2021/06/24 10:19:40;;;;;;;22.50;18.90;;;21.10;99.90;;;;;;4995522;28;20432;-76
2021/06/24 10:22:17;;;;;;;21.23;18.90;;;21.20;99.90;;;;;;4995542;28;20490;-76
2021/06/24 10:25:00;;;;;;;26.17;18.00;;;21.10;99.90;;;;;;4995300;28;20917;-76
2021/06/24 10:27:35;;;;;;;20.63;18.60;;;21.40;99.90;;;;;;4995616;28;20515;-77
2021/06/24 10:30:12;;;;;;;20.03;18.10;;;21.70;99.90;;;;;;4995336;28;20377;-77
2021/06/24 10:32:39;;;;;;;19.40;17.20;;;22.00;99.90;;;;;;4995265;28;20385;-77
2021/06/24 10:35:26;;;;;;;20.53;18.33;;;21.70;99.90;;;;;;4993942;28;20435;-76
2021/06/24 10:37:52;;;;;;;21.90;19.70;;;21.50;99.90;;;;;;4995386;28;20397;-77
2021/06/24 10:40:57;;;;;;;23.13;20.83;;;21.50;99.90;;;;;;4994759;28;20413;-77
2021/06/24 10:43:24;;;;;;;24.40;20.17;;;21.50;99.90;;;;;;4994957;28;20824;-76
2021/06/24 10:46:09;;;;;;;23.90;20.50;;;21.30;99.90;;;;;;4995107;28;20764;-76
2021/06/24 10:48:35;;;;;;;22.03;19.70;;;21.30;99.90;;;;;;4995153;28;20433;-77
2021/06/24 10:51:11;;;;;;;21.87;19.73;;;21.60;99.90;;;;;;4995139;28;20484;-77
2021/06/24 10:53:46;;;;;;;23.37;20.80;;;21.80;99.90;;;;;;4994775;28;20191;-76
2021/06/24 10:56:29;;;;;;;22.53;19.13;;;22.00;99.90;;;;;;4995281;28;20391;-77
2021/06/24 10:58:56;;;;;;;20.90;18.80;;;22.30;99.90;;;;;;4995102;28;20418;-77
2021/06/24 11:01:42;;;;;;;25.00;22.10;;;22.60;99.90;;;;;;4995092;28;20396;-76
2021/06/24 11:04:24;;;;;;;20.63;18.30;;;22.60;99.90;;;;;;4994458;28;20447;-76
2021/06/24 11:06:52;;;;;;;19.60;17.50;;;22.60;99.90;;;;;;4994774;28;20462;-77
2021/06/24 11:09:19;;;;;;;20.27;18.17;;;22.80;99.90;;;;;;4994828;28;20411;-77
2021/06/24 11:11:46;;;;;;;23.03;20.60;;;22.70;99.90;;;;;;4994776;28;20417;-76
2021/06/24 11:14:15;;;;;;;19.03;16.63;;;22.80;99.90;;;;;;4994310;28;20457;-78
2021/06/24 11:16:41;;;;;;;22.13;19.17;;;23.30;99.90;;;;;;4993253;28;20899;-76
2021/06/24 11:19:15;;;;;;;19.43;17.47;;;23.30;99.90;;;;;;4994649;28;20476;-78
2021/06/24 11:21:41;;;;;;;19.77;17.77;;;23.30;99.90;;;;;;4994492;28;20416;-76
2021/06/24 11:24:07;;;;;;;19.17;17.30;;;23.20;99.90;;;;;;4994098;28;20462;-76
2021/06/24 11:26:39;;;;;;;19.70;17.87;;;23.30;99.90;;;;;;4994248;28;20183;-77
2021/06/24 11:29:11;;;;;;;20.27;17.87;;;23.30;99.90;;;;;;4994497;28;20548;-76
2021/06/24 11:31:43;;;;;;;18.87;16.87;;;23.30;99.90;;;;;;4994320;28;20879;-76
2021/06/24 11:36:52;;;;;;;21.60;17.07;;;23.30;99.90;;;;;;4994156;28;20432;-77
2021/06/24 11:39:26;;;;;;;22.50;18.10;;;23.30;99.90;;;;;;4994209;28;20417;-77
2021/06/24 11:41:54;;;;;;;17.53;15.80;;;23.70;99.90;;;;;;4994110;28;20376;-77
2021/06/24 11:44:25;;;;;;;19.43;15.97;;;23.90;99.90;;;;;;4993775;28;20434;-77
2021/06/24 11:46:59;;;;;;;17.63;15.87;;;24.20;99.90;;;;;;4993880;28;20462;-77
2021/06/24 12:03:21;;;;;;;14.13;10.87;;;25.00;99.90;;;;;;4992221;28;20465;-76
2021/06/24 12:05:54;;;;;;;12.30;11.00;;;25.50;99.90;;;;;;4993858;28;20959;-76
2021/06/24 12:08:25;;;;;;;15.80;11.40;;;26.00;99.90;;;;;;4993631;28;20293;-78
2021/06/24 12:11:06;;;;;;;15.50;12.03;;;26.40;99.90;;;;;;4993694;28;20407;-77
2021/06/24 12:13:34;;;;;;;12.70;11.40;;;26.00;99.90;;;;;;4993450;28;20935;-77
2021/06/24 12:16:00;;;;;;;18.70;12.47;;;25.20;99.90;;;;;;4993779;28;20422;-76
2021/06/24 12:18:41;;;;;;;14.57;11.73;;;25.20;99.90;;;;;;4993795;28;20419;-76
2021/06/24 12:21:09;;;;;;;13.57;10.10;;;25.00;99.90;;;;;;4993638;28;20481;-76
2021/06/24 12:23:39;;;;;;;14.77;12.13;;;24.80;99.90;;;;;;4993357;28;20411;-76
2021/06/24 12:26:05;;;;;;;17.53;11.87;;;24.90;99.90;;;;;;4993914;28;20762;-76
2021/06/24 12:28:31;;;;;;;23.37;13.40;;;24.60;99.90;;;;;;4993402;28;20473;-79
2021/06/24 12:30:57;;;;;;;17.43;11.80;;;24.70;99.90;;;;;;4993424;28;20469;-77
2021/06/24 12:33:25;;;;;;;10.57;9.40;;;24.70;99.90;;;;;;4993109;28;20497;-78
2021/06/24 12:35:51;;;;;;;11.20;10.00;;;24.70;99.90;;;;;;4993466;28;20413;-77
2021/06/24 12:38:23;;;;;;;17.30;11.80;;;24.60;99.90;;;;;;4993448;28;20419;-77
2021/06/24 12:40:59;;;;;;;13.77;10.23;;;24.40;99.90;;;;;;4993626;28;20274;-77
2021/06/24 12:43:30;;;;;;;11.83;10.43;;;24.20;99.90;;;;;;4993007;28;20943;-77
2021/06/24 12:46:00;;;;;;;11.97;10.53;;;24.20;99.90;;;;;;4993450;28;20418;-77
2021/06/24 12:48:40;;;;;;;13.70;11.13;;;24.20;99.90;;;;;;4993423;28;20497;-77
2021/06/24 12:51:20;;;;;;;12.23;10.20;;;24.00;99.90;;;;;;4993365;28;20407;-77